createdAt,value
2022-12-15T00:00:21.942Z,986.12
2022-12-15T00:01:21.895Z,986.15
2022-12-15T00:02:22.092Z,986.18
2022-12-15T00:03:22.029Z,986.16
2022-12-15T00:04:21.816Z,986.21
2022-12-15T00:05:21.800Z,986.16
2022-12-15T00:06:21.866Z,986.18
2022-12-15T00:07:21.782Z,986.16
2022-12-15T00:08:21.786Z,986.19
2022-12-15T00:09:24.046Z,986.19
2022-12-15T00:10:21.753Z,986.20
2022-12-15T00:11:21.783Z,986.19
2022-12-15T00:12:21.720Z,986.22
2022-12-15T00:13:21.730Z,986.22
2022-12-15T00:14:21.703Z,986.16
2022-12-15T00:15:21.728Z,986.20
2022-12-15T00:16:21.803Z,986.22
2022-12-15T00:17:21.683Z,986.19
2022-12-15T00:18:21.657Z,986.23
2022-12-15T00:19:21.654Z,986.23
2022-12-15T00:20:21.656Z,986.25
2022-12-15T00:21:21.661Z,986.26
2022-12-15T00:22:21.616Z,986.28
2022-12-15T00:23:21.621Z,986.29
2022-12-15T00:24:21.593Z,986.28
2022-12-15T00:25:21.587Z,986.33
2022-12-15T00:26:21.579Z,986.35
2022-12-15T00:27:21.596Z,986.33
2022-12-15T00:28:21.559Z,986.38
2022-12-15T00:29:21.539Z,986.38
2022-12-15T00:30:21.536Z,986.44
2022-12-15T00:31:21.576Z,986.44
2022-12-15T00:32:21.518Z,986.43
2022-12-15T00:33:21.522Z,986.43
2022-12-15T00:34:21.487Z,986.39
2022-12-15T00:35:21.480Z,986.47
2022-12-15T00:36:21.493Z,986.45
2022-12-15T00:37:21.461Z,986.48
2022-12-15T00:38:21.466Z,986.46
2022-12-15T00:39:21.438Z,986.47
2022-12-15T00:40:21.479Z,986.50
2022-12-15T00:41:21.425Z,986.48
2022-12-15T00:42:21.440Z,986.50
2022-12-15T00:43:21.417Z,986.48
2022-12-15T00:44:21.393Z,986.49
2022-12-15T00:45:21.390Z,986.52
2022-12-15T00:46:21.485Z,986.48
2022-12-15T00:47:21.362Z,986.51
2022-12-15T00:48:21.370Z,986.54
2022-12-15T00:49:21.373Z,986.55
2022-12-15T00:50:21.323Z,986.57
2022-12-15T00:51:21.303Z,986.57
2022-12-15T00:52:21.306Z,986.57
2022-12-15T00:53:21.417Z,986.56
2022-12-15T00:54:21.280Z,986.55
2022-12-15T00:55:21.269Z,986.54
2022-12-15T00:56:21.260Z,986.58
2022-12-15T00:57:21.268Z,986.57
2022-12-15T00:58:21.231Z,986.55
2022-12-15T00:59:21.219Z,986.58
2022-12-15T01:00:21.250Z,986.57
2022-12-15T01:01:21.399Z,986.65
2022-12-15T01:02:21.379Z,986.63
2022-12-15T01:03:21.375Z,986.68
2022-12-15T01:04:21.296Z,986.70
2022-12-15T01:05:21.201Z,986.71
2022-12-15T01:06:21.154Z,986.68
2022-12-15T01:07:21.139Z,986.69
2022-12-15T01:08:21.131Z,986.76
2022-12-15T01:09:21.140Z,986.76
2022-12-15T01:10:21.140Z,986.75
2022-12-15T01:11:21.103Z,986.76
2022-12-15T01:12:21.095Z,986.72
2022-12-15T01:13:21.077Z,986.73
2022-12-15T01:14:21.087Z,986.75
2022-12-15T01:15:21.048Z,986.78
2022-12-15T01:16:21.133Z,986.82
2022-12-15T01:17:21.058Z,986.81
2022-12-15T01:18:21.035Z,986.84
2022-12-15T01:19:21.009Z,986.84
2022-12-15T01:20:21.045Z,986.79
2022-12-15T01:21:24.729Z,986.81
2022-12-15T01:22:20.985Z,986.82
2022-12-15T01:23:20.966Z,986.82
2022-12-15T01:24:20.955Z,986.86
2022-12-15T01:25:20.958Z,986.77
2022-12-15T01:26:20.940Z,986.78
2022-12-15T01:27:20.923Z,986.81
2022-12-15T01:28:20.911Z,986.80
2022-12-15T01:29:20.917Z,986.79
2022-12-15T01:30:20.949Z,986.82
2022-12-15T01:31:20.925Z,986.85
2022-12-15T01:32:20.878Z,986.90
2022-12-15T01:33:20.859Z,986.86
2022-12-15T01:34:20.880Z,986.85
2022-12-15T01:35:20.838Z,986.86
2022-12-15T01:36:20.828Z,986.80
2022-12-15T01:37:20.839Z,986.83
2022-12-15T01:38:20.813Z,986.85
2022-12-15T01:39:20.835Z,986.84
2022-12-15T01:40:20.788Z,986.84
2022-12-15T01:41:20.776Z,986.79
2022-12-15T01:42:20.765Z,986.82
2022-12-15T01:43:20.776Z,986.83
2022-12-15T01:44:20.751Z,986.84
2022-12-15T01:45:20.740Z,986.87
2022-12-15T01:46:20.751Z,986.82
2022-12-15T01:47:20.747Z,986.82
2022-12-15T01:48:20.732Z,986.80
2022-12-15T01:49:20.700Z,986.83
2022-12-15T01:50:20.680Z,986.85
2022-12-15T01:51:20.675Z,986.84
2022-12-15T01:52:20.657Z,986.90
2022-12-15T01:53:20.695Z,986.91
2022-12-15T01:54:20.640Z,986.90
2022-12-15T01:55:20.632Z,986.94
2022-12-15T01:56:20.617Z,986.96
2022-12-15T01:57:20.635Z,986.98
2022-12-15T01:58:20.598Z,986.98
2022-12-15T01:59:20.614Z,986.94
2022-12-15T02:00:20.613Z,986.97
2022-12-15T02:01:20.812Z,987.01
2022-12-15T02:02:20.703Z,987.01
2022-12-15T02:03:20.646Z,987.00
2022-12-15T02:04:20.533Z,987.00
2022-12-15T02:05:20.546Z,987.03
2022-12-15T02:06:20.536Z,987.03
2022-12-15T02:07:20.504Z,987.07
2022-12-15T02:08:20.498Z,987.06
2022-12-15T02:09:20.500Z,987.13
2022-12-15T02:10:20.589Z,987.10
2022-12-15T02:11:20.497Z,987.14
2022-12-15T02:12:20.454Z,987.17
2022-12-15T02:13:20.455Z,987.19
2022-12-15T02:14:20.424Z,987.11
2022-12-15T02:15:20.437Z,987.15
2022-12-15T02:16:20.459Z,987.15
2022-12-15T02:17:20.394Z,987.16
2022-12-15T02:18:20.429Z,987.18
2022-12-15T02:19:20.440Z,987.17
2022-12-15T02:20:20.404Z,987.24
2022-12-15T02:21:20.352Z,987.22
2022-12-15T02:22:20.362Z,987.23
2022-12-15T02:23:20.332Z,987.27
2022-12-15T02:24:20.332Z,987.20
2022-12-15T02:25:20.374Z,987.21
2022-12-15T02:26:20.349Z,987.29
2022-12-15T02:27:20.292Z,987.28
2022-12-15T02:28:20.364Z,987.33
2022-12-15T02:29:20.297Z,987.28
2022-12-15T02:30:20.293Z,987.29
2022-12-15T02:31:20.350Z,987.28
2022-12-15T02:32:20.241Z,987.32
2022-12-15T02:33:20.252Z,987.33
2022-12-15T02:34:20.333Z,987.35
2022-12-15T02:35:20.206Z,987.30
2022-12-15T02:36:20.215Z,987.29
2022-12-15T02:37:20.214Z,987.33
2022-12-15T02:38:20.205Z,987.32
2022-12-15T02:39:20.166Z,987.30
2022-12-15T02:40:20.222Z,987.35
2022-12-15T02:41:20.217Z,987.37
2022-12-15T02:42:20.153Z,987.44
2022-12-15T02:43:20.129Z,987.40
2022-12-15T02:44:20.124Z,987.40
2022-12-15T02:45:20.115Z,987.43
2022-12-15T02:46:20.145Z,987.45
2022-12-15T02:47:20.111Z,987.39
2022-12-15T02:48:20.070Z,987.43
2022-12-15T02:49:20.087Z,987.40
2022-12-15T02:50:20.047Z,987.43
2022-12-15T02:51:20.040Z,987.46
2022-12-15T02:52:20.049Z,987.48
2022-12-15T02:53:20.021Z,987.55
2022-12-15T02:54:20.042Z,987.54
2022-12-15T02:55:20.037Z,987.54
2022-12-15T02:56:19.988Z,987.56
2022-12-15T02:57:20.083Z,987.55
2022-12-15T02:58:19.975Z,987.56
2022-12-15T02:59:19.957Z,987.59
2022-12-15T03:00:19.956Z,987.58
2022-12-15T03:01:20.245Z,987.59
2022-12-15T03:02:20.013Z,987.56
2022-12-15T03:03:19.948Z,987.56
2022-12-15T03:04:19.904Z,987.57
2022-12-15T03:05:19.897Z,987.60
2022-12-15T03:06:19.903Z,987.58
2022-12-15T03:07:19.889Z,987.55
2022-12-15T03:08:19.898Z,987.58
2022-12-15T03:09:19.906Z,987.56
2022-12-15T03:10:19.871Z,987.53
2022-12-15T03:11:19.965Z,987.53
2022-12-15T03:12:19.840Z,987.59
2022-12-15T03:13:19.828Z,987.56
2022-12-15T03:14:19.845Z,987.61
2022-12-15T03:15:19.818Z,987.63
2022-12-15T03:16:19.882Z,987.59
2022-12-15T03:17:19.771Z,987.60
2022-12-15T03:18:19.780Z,987.57
2022-12-15T03:19:19.745Z,987.57
2022-12-15T03:20:19.734Z,987.59
2022-12-15T03:21:19.725Z,987.62
2022-12-15T03:22:19.731Z,987.61
2022-12-15T03:23:19.720Z,987.58
2022-12-15T03:24:19.737Z,987.64
2022-12-15T03:25:19.679Z,987.67
2022-12-15T03:26:19.671Z,987.71
2022-12-15T03:27:19.692Z,987.73
2022-12-15T03:28:19.653Z,987.72
2022-12-15T03:29:19.661Z,987.79
2022-12-15T03:30:19.657Z,987.77
2022-12-15T03:31:19.692Z,987.79
2022-12-15T03:32:20.690Z,987.77
2022-12-15T03:33:19.598Z,987.76
2022-12-15T03:34:19.587Z,987.81
2022-12-15T03:35:19.597Z,987.83
2022-12-15T03:36:19.573Z,987.81
2022-12-15T03:37:19.580Z,987.82
2022-12-15T03:38:19.696Z,987.79
2022-12-15T03:39:19.664Z,987.85
2022-12-15T03:40:19.568Z,987.82
2022-12-15T03:41:19.664Z,987.83
2022-12-15T03:42:19.518Z,987.82
2022-12-15T03:43:19.502Z,987.84
2022-12-15T03:44:19.523Z,987.86
2022-12-15T03:45:19.492Z,987.83
2022-12-15T03:46:19.486Z,987.88
2022-12-15T03:47:19.499Z,987.92
2022-12-15T03:48:19.500Z,987.92
2022-12-15T03:49:19.469Z,987.90
2022-12-15T03:50:19.416Z,987.97
2022-12-15T03:51:19.512Z,987.91
2022-12-15T03:52:19.396Z,987.93
2022-12-15T03:53:19.389Z,987.93
2022-12-15T03:54:19.395Z,987.97
2022-12-15T03:55:19.359Z,987.98
2022-12-15T03:56:19.369Z,987.96
2022-12-15T03:57:19.353Z,987.96
2022-12-15T03:58:19.329Z,987.98
2022-12-15T03:59:19.808Z,988.00
2022-12-15T04:00:19.369Z,987.97
2022-12-15T04:01:19.583Z,988.03
2022-12-15T04:02:19.512Z,988.05
2022-12-15T04:03:19.383Z,988.08
2022-12-15T04:04:19.294Z,988.01
2022-12-15T04:05:19.285Z,988.06
2022-12-15T04:06:19.246Z,988.07
2022-12-15T04:07:19.234Z,988.03
2022-12-15T04:08:19.254Z,988.09
2022-12-15T04:09:19.236Z,988.08
2022-12-15T04:10:19.201Z,988.12
2022-12-15T04:11:19.217Z,988.13
2022-12-15T04:12:19.183Z,988.13
2022-12-15T04:13:19.190Z,988.14
2022-12-15T04:14:19.159Z,988.15
2022-12-15T04:15:19.151Z,988.14
2022-12-15T04:16:20.342Z,988.16
2022-12-15T04:17:19.259Z,988.16
2022-12-15T04:18:19.140Z,988.12
2022-12-15T04:19:19.107Z,988.16
2022-12-15T04:20:19.094Z,988.12
2022-12-15T04:21:19.104Z,988.15
2022-12-15T04:22:19.079Z,988.22
2022-12-15T04:23:19.220Z,988.20
2022-12-15T04:24:19.081Z,988.19
2022-12-15T04:25:19.044Z,988.22
2022-12-15T04:26:19.035Z,988.21
2022-12-15T04:27:19.035Z,988.20
2022-12-15T04:28:19.022Z,988.26
2022-12-15T04:29:19.025Z,988.25
2022-12-15T04:30:19.027Z,988.29
2022-12-15T04:31:19.084Z,988.24
2022-12-15T04:32:18.987Z,988.31
2022-12-15T04:33:19.021Z,988.35
2022-12-15T04:34:18.977Z,988.37
2022-12-15T04:35:18.963Z,988.37
2022-12-15T04:36:18.926Z,988.37
2022-12-15T04:37:18.922Z,988.40
2022-12-15T04:38:18.937Z,988.46
2022-12-15T04:39:18.904Z,988.44
2022-12-15T04:40:18.902Z,988.45
2022-12-15T04:41:18.941Z,988.39
2022-12-15T04:42:18.927Z,988.38
2022-12-15T04:43:18.891Z,988.40
2022-12-15T04:44:18.866Z,988.38
2022-12-15T04:45:21.031Z,988.40
2022-12-15T04:46:18.889Z,988.36
2022-12-15T04:47:18.827Z,988.43
2022-12-15T04:48:18.807Z,988.42
2022-12-15T04:49:18.815Z,988.45
2022-12-15T04:50:18.831Z,988.45
2022-12-15T04:51:18.881Z,988.45
2022-12-15T04:52:18.806Z,988.47
2022-12-15T04:53:18.747Z,988.44
2022-12-15T04:54:18.747Z,988.44
2022-12-15T04:55:18.730Z,988.43
2022-12-15T04:56:19.005Z,988.47
2022-12-15T04:57:18.718Z,988.49
2022-12-15T04:58:18.709Z,988.50
2022-12-15T04:59:18.690Z,988.48
2022-12-15T05:00:18.708Z,988.51
2022-12-15T05:01:18.815Z,988.49
2022-12-15T05:02:18.782Z,988.48
2022-12-15T05:03:18.793Z,988.55
2022-12-15T05:04:18.744Z,988.60
2022-12-15T05:05:18.673Z,988.59
2022-12-15T05:06:18.613Z,988.56
2022-12-15T05:07:18.604Z,988.55
2022-12-15T05:08:18.617Z,988.57
2022-12-15T05:09:18.582Z,988.57
2022-12-15T05:10:18.593Z,988.59
2022-12-15T05:11:18.564Z,988.52
2022-12-15T05:12:18.550Z,988.58
2022-12-15T05:13:18.549Z,988.52
2022-12-15T05:14:18.559Z,988.51
2022-12-15T05:15:18.556Z,988.51
2022-12-15T05:16:18.643Z,988.61
2022-12-15T05:17:18.550Z,988.57
2022-12-15T05:18:18.506Z,988.58
2022-12-15T05:19:18.476Z,988.57
2022-12-15T05:20:18.468Z,988.53
2022-12-15T05:21:18.499Z,988.59
2022-12-15T05:22:18.451Z,988.57
2022-12-15T05:23:18.458Z,988.55
2022-12-15T05:24:18.445Z,988.56
2022-12-15T05:25:18.410Z,988.55
2022-12-15T05:26:18.439Z,988.58
2022-12-15T05:27:18.394Z,988.57
2022-12-15T05:28:18.401Z,988.60
2022-12-15T05:29:18.394Z,988.61
2022-12-15T05:30:18.364Z,988.59
2022-12-15T05:31:18.403Z,988.65
2022-12-15T05:32:18.348Z,988.65
2022-12-15T05:33:18.337Z,988.67
2022-12-15T05:34:18.339Z,988.68
2022-12-15T05:35:18.348Z,988.68
2022-12-15T05:36:18.318Z,988.72
2022-12-15T05:37:18.412Z,988.67
2022-12-15T05:38:18.278Z,988.70
2022-12-15T05:39:18.271Z,988.71
2022-12-15T05:40:18.349Z,988.69
2022-12-15T05:41:18.245Z,988.79
2022-12-15T05:42:18.234Z,988.79
2022-12-15T05:43:23.040Z,988.76
2022-12-15T05:44:19.214Z,988.81
2022-12-15T05:45:18.260Z,988.82
2022-12-15T05:46:18.273Z,988.85
2022-12-15T05:47:18.186Z,988.87
2022-12-15T05:48:18.170Z,988.87
2022-12-15T05:49:18.258Z,988.88
2022-12-15T05:50:18.170Z,988.89
2022-12-15T05:51:18.147Z,988.86
2022-12-15T05:52:18.140Z,988.85
2022-12-15T05:53:18.229Z,988.88
2022-12-15T05:54:18.140Z,988.82
2022-12-15T05:55:18.121Z,988.84
2022-12-15T05:56:18.086Z,988.85
2022-12-15T05:57:18.104Z,988.88
2022-12-15T05:58:18.061Z,988.91
2022-12-15T05:59:18.049Z,988.90
2022-12-15T06:00:18.067Z,988.98
2022-12-15T06:01:18.239Z,989.03
2022-12-15T06:02:18.185Z,989.06
2022-12-15T06:03:18.101Z,989.10
2022-12-15T06:04:18.058Z,989.12
2022-12-15T06:05:17.999Z,989.13
2022-12-15T06:06:18.007Z,989.15
2022-12-15T06:07:17.965Z,989.13
2022-12-15T06:08:17.970Z,989.10
2022-12-15T06:09:17.994Z,989.08
2022-12-15T06:10:17.939Z,989.13
2022-12-15T06:11:17.942Z,989.14
2022-12-15T06:12:17.940Z,989.18
2022-12-15T06:13:17.951Z,989.15
2022-12-15T06:14:17.922Z,989.18
2022-12-15T06:15:17.891Z,989.26
2022-12-15T06:16:17.985Z,989.21
2022-12-15T06:17:17.929Z,989.23
2022-12-15T06:18:17.850Z,989.24
2022-12-15T06:19:17.846Z,989.28
2022-12-15T06:20:17.962Z,989.31
2022-12-15T06:21:17.840Z,989.31
2022-12-15T06:22:17.808Z,989.32
2022-12-15T06:23:17.805Z,989.32
2022-12-15T06:24:17.790Z,989.30
2022-12-15T06:25:17.826Z,989.28
2022-12-15T06:26:17.773Z,989.33
2022-12-15T06:27:17.762Z,989.30
2022-12-15T06:28:17.775Z,989.31
2022-12-15T06:29:17.739Z,989.29
2022-12-15T06:30:17.724Z,989.31
2022-12-15T06:31:18.664Z,989.31
2022-12-15T06:32:17.709Z,989.26
2022-12-15T06:33:17.715Z,989.27
2022-12-15T06:34:17.684Z,989.28
2022-12-15T06:35:17.692Z,989.24
2022-12-15T06:36:17.673Z,989.19
2022-12-15T06:37:17.664Z,989.23
2022-12-15T06:38:17.642Z,989.26
2022-12-15T06:39:17.658Z,989.23
2022-12-15T06:40:17.651Z,989.22
2022-12-15T06:41:17.625Z,989.26
2022-12-15T06:42:17.627Z,989.22
2022-12-15T06:43:17.593Z,989.20
2022-12-15T06:44:17.617Z,989.25
2022-12-15T06:45:17.612Z,989.25
2022-12-15T06:46:17.627Z,989.25
2022-12-15T06:47:17.553Z,989.29
2022-12-15T06:48:17.617Z,989.33
2022-12-15T06:49:17.526Z,989.34
2022-12-15T06:50:17.514Z,989.32
2022-12-15T06:51:17.751Z,989.34
2022-12-15T06:52:17.497Z,989.39
2022-12-15T06:53:17.479Z,989.39
2022-12-15T06:54:17.545Z,989.42
2022-12-15T06:55:17.460Z,989.50
2022-12-15T06:56:17.453Z,989.48
2022-12-15T06:57:17.463Z,989.55
2022-12-15T06:58:17.437Z,989.54
2022-12-15T06:59:17.685Z,989.60
2022-12-15T07:00:17.416Z,989.58
2022-12-15T07:01:17.707Z,989.59
2022-12-15T07:02:19.241Z,989.63
2022-12-15T07:03:18.608Z,989.57
2022-12-15T07:04:17.452Z,989.57
2022-12-15T07:05:17.356Z,989.62
2022-12-15T07:06:17.587Z,989.61
2022-12-15T07:07:17.332Z,989.60
2022-12-15T07:08:17.354Z,989.58
2022-12-15T07:09:17.354Z,989.62
2022-12-15T07:10:17.303Z,989.63
2022-12-15T07:11:17.298Z,989.62
2022-12-15T07:12:17.290Z,989.66
2022-12-15T07:13:17.281Z,989.67
2022-12-15T07:14:17.275Z,989.67
2022-12-15T07:15:17.295Z,989.65
2022-12-15T07:16:17.437Z,989.67
2022-12-15T07:17:17.234Z,989.64
2022-12-15T07:18:17.239Z,989.70
2022-12-15T07:19:17.211Z,989.69
2022-12-15T07:20:17.199Z,989.71
2022-12-15T07:21:17.217Z,989.74
2022-12-15T07:22:17.181Z,989.66
2022-12-15T07:23:17.170Z,989.69
2022-12-15T07:24:17.150Z,989.70
2022-12-15T07:25:17.141Z,989.68
2022-12-15T07:26:17.161Z,989.68
2022-12-15T07:27:17.113Z,989.73
2022-12-15T07:28:20.032Z,989.74
2022-12-15T07:29:22.900Z,989.78
2022-12-15T07:30:18.106Z,989.78
2022-12-15T07:31:17.125Z,989.81
2022-12-15T07:32:17.066Z,989.83
2022-12-15T07:33:17.075Z,989.83
2022-12-15T07:34:17.048Z,989.89
2022-12-15T07:35:17.044Z,989.84
2022-12-15T07:36:17.031Z,989.85
2022-12-15T07:37:17.036Z,989.87
2022-12-15T07:38:17.007Z,989.85
2022-12-15T07:39:16.990Z,989.84
2022-12-15T07:40:16.990Z,989.82
2022-12-15T07:41:16.999Z,989.86
2022-12-15T07:42:16.985Z,989.86
2022-12-15T07:43:17.773Z,989.89
2022-12-15T07:44:16.940Z,989.86
2022-12-15T07:45:16.946Z,989.83
2022-12-15T07:46:17.048Z,989.90
2022-12-15T07:47:16.938Z,989.90
2022-12-15T07:48:16.908Z,989.90
2022-12-15T07:49:16.891Z,989.91
2022-12-15T07:50:16.904Z,989.93
2022-12-15T07:51:19.684Z,989.94
2022-12-15T07:52:16.860Z,989.91
2022-12-15T07:53:16.859Z,989.94
2022-12-15T07:54:16.833Z,989.94
2022-12-15T07:55:16.841Z,989.94
2022-12-15T07:56:16.814Z,989.97
2022-12-15T07:57:16.806Z,990.01
2022-12-15T07:58:16.794Z,990.04
2022-12-15T07:59:16.803Z,990.03
2022-12-15T08:00:16.808Z,990.07
2022-12-15T08:01:17.007Z,990.06
2022-12-15T08:02:16.922Z,990.10
2022-12-15T08:03:16.911Z,990.13
2022-12-15T08:04:16.738Z,990.13
2022-12-15T08:05:16.757Z,990.15
2022-12-15T08:06:16.721Z,990.16
2022-12-15T08:07:16.703Z,990.18
2022-12-15T08:08:16.690Z,990.19
2022-12-15T08:09:16.674Z,990.19
2022-12-15T08:10:16.667Z,990.24
2022-12-15T08:11:16.670Z,990.27
2022-12-15T08:12:16.652Z,990.25
2022-12-15T08:13:38.177Z,990.28
2022-12-15T08:14:18.721Z,990.32
2022-12-15T08:15:16.628Z,990.28
2022-12-15T08:16:16.670Z,990.27
2022-12-15T08:17:16.617Z,990.36
2022-12-15T08:18:16.585Z,990.28
2022-12-15T08:19:16.606Z,990.29
2022-12-15T08:20:16.567Z,990.28
2022-12-15T08:21:16.609Z,990.30
2022-12-15T08:22:16.550Z,990.29
2022-12-15T08:23:16.526Z,990.28
2022-12-15T08:24:16.521Z,990.26
2022-12-15T08:25:16.534Z,990.24
2022-12-15T08:26:16.517Z,990.25
2022-12-15T08:27:16.482Z,990.28
2022-12-15T08:28:16.471Z,990.33
2022-12-15T08:30:17.451Z,990.31
2022-12-15T08:31:16.456Z,990.32
2022-12-15T08:32:16.456Z,990.31
2022-12-15T08:33:16.448Z,990.29
2022-12-15T08:34:16.440Z,990.31
2022-12-15T08:35:46.969Z,990.23
2022-12-15T08:36:17.388Z,990.27
2022-12-15T08:37:16.378Z,990.24
2022-12-15T08:38:16.369Z,990.26
2022-12-15T08:39:16.587Z,990.28
2022-12-15T08:40:16.372Z,990.32
2022-12-15T08:41:16.377Z,990.31
2022-12-15T08:42:16.328Z,990.34
2022-12-15T08:43:16.307Z,990.36
2022-12-15T08:44:16.310Z,990.37
2022-12-15T08:45:16.290Z,990.41
2022-12-15T08:46:16.376Z,990.36
2022-12-15T08:47:16.308Z,990.39
2022-12-15T08:48:16.272Z,990.37
2022-12-15T08:49:21.488Z,990.33
2022-12-15T08:50:17.236Z,990.36
2022-12-15T08:51:16.232Z,990.37
2022-12-15T08:52:16.257Z,990.34
2022-12-15T08:53:42.579Z,990.39
2022-12-15T08:54:17.215Z,990.40
2022-12-15T08:55:20.857Z,990.40
2022-12-15T08:56:17.175Z,990.46
2022-12-15T08:57:16.196Z,990.46
2022-12-15T08:58:16.285Z,990.46
2022-12-15T08:59:16.154Z,990.41
2022-12-15T09:00:16.148Z,990.48
2022-12-15T09:01:20.737Z,990.46
2022-12-15T09:02:17.175Z,990.51
2022-12-15T09:03:16.109Z,990.46
2022-12-15T09:04:16.196Z,990.51
2022-12-15T09:05:16.108Z,990.48
2022-12-15T09:06:16.101Z,990.46
2022-12-15T09:07:16.060Z,990.44
2022-12-15T09:08:16.060Z,990.43
2022-12-15T09:09:16.063Z,990.42
2022-12-15T09:10:16.031Z,990.50
2022-12-15T09:11:16.025Z,990.48
2022-12-15T09:12:16.007Z,990.51
2022-12-15T09:13:16.027Z,990.43
2022-12-15T09:14:16.015Z,990.42
2022-12-15T09:15:15.983Z,990.42
2022-12-15T09:16:16.198Z,990.47
2022-12-15T09:17:16.008Z,990.49
2022-12-15T09:18:15.947Z,990.49
2022-12-15T09:19:16.040Z,990.50
2022-12-15T09:20:17.917Z,990.48
2022-12-15T09:21:16.034Z,990.50
2022-12-15T09:22:15.939Z,990.57
2022-12-15T09:23:15.895Z,990.56
2022-12-15T09:24:23.182Z,990.55
2022-12-15T09:25:16.898Z,990.60
2022-12-15T09:26:15.915Z,990.51
2022-12-15T09:27:15.844Z,990.56
2022-12-15T09:28:15.844Z,990.60
2022-12-15T09:29:15.827Z,990.61
2022-12-15T09:30:15.855Z,990.63
2022-12-15T09:31:15.865Z,990.61
2022-12-15T09:32:15.795Z,990.62
2022-12-15T09:33:15.777Z,990.65
2022-12-15T09:34:15.794Z,990.63
2022-12-15T09:35:15.761Z,990.64
2022-12-15T09:36:15.758Z,990.61
2022-12-15T09:37:15.749Z,990.67
2022-12-15T09:38:15.745Z,990.63
2022-12-15T09:39:15.746Z,990.65
2022-12-15T09:40:15.719Z,990.63
2022-12-15T09:41:15.694Z,990.69
2022-12-15T09:42:15.685Z,990.71
2022-12-15T09:43:33.886Z,990.68
2022-12-15T09:44:16.693Z,990.75
2022-12-15T09:45:15.650Z,990.74
2022-12-15T09:46:15.694Z,990.75
2022-12-15T09:47:15.630Z,990.76
2022-12-15T09:48:15.620Z,990.80
2022-12-15T09:49:15.637Z,990.80
2022-12-15T09:50:15.619Z,990.82
2022-12-15T09:51:15.592Z,990.79
2022-12-15T09:52:15.599Z,990.77
2022-12-15T09:53:52.580Z,990.80
2022-12-15T09:54:16.564Z,990.77
2022-12-15T09:55:15.646Z,990.79
2022-12-15T09:56:15.565Z,990.77
2022-12-15T09:57:15.630Z,990.80
2022-12-15T09:58:15.528Z,990.81
2022-12-15T09:59:15.504Z,990.80
2022-12-15T10:00:15.498Z,990.78
2022-12-15T10:01:15.485Z,990.80
2022-12-15T10:02:15.614Z,990.73
2022-12-15T10:03:15.621Z,990.74
2022-12-15T10:04:15.623Z,990.76
2022-12-15T10:05:15.454Z,990.81
2022-12-15T10:06:18.087Z,990.82
2022-12-15T10:07:15.420Z,990.81
2022-12-15T10:08:15.410Z,990.86
2022-12-15T10:09:15.415Z,990.88
2022-12-15T10:10:15.418Z,990.85
2022-12-15T10:11:15.369Z,990.91
2022-12-15T10:12:15.389Z,990.90
2022-12-15T10:13:15.359Z,990.89
2022-12-15T10:14:15.348Z,990.95
2022-12-15T10:15:15.330Z,990.98
2022-12-15T10:16:15.350Z,990.94
2022-12-15T10:17:15.329Z,990.96
2022-12-15T10:18:15.320Z,991.00
2022-12-15T10:19:15.292Z,990.98
2022-12-15T10:20:15.277Z,991.02
2022-12-15T10:21:15.263Z,990.96
2022-12-15T10:22:15.270Z,990.96
2022-12-15T10:23:15.317Z,990.99
2022-12-15T10:24:15.230Z,990.97
2022-12-15T10:25:15.255Z,990.99
2022-12-15T10:26:15.218Z,991.02
2022-12-15T10:27:15.210Z,990.95
2022-12-15T10:28:15.223Z,990.96
2022-12-15T10:29:15.175Z,990.96
2022-12-15T10:30:15.312Z,990.94
2022-12-15T10:31:15.198Z,990.95
2022-12-15T10:32:15.195Z,990.92
2022-12-15T10:33:15.138Z,990.86
2022-12-15T10:34:15.279Z,990.89
2022-12-15T10:35:15.176Z,990.90
2022-12-15T10:36:15.145Z,990.93
2022-12-15T10:37:15.117Z,990.97
2022-12-15T10:38:15.177Z,990.99
2022-12-15T10:39:17.695Z,990.98
2022-12-15T10:40:15.109Z,990.96
2022-12-15T10:41:15.067Z,990.98
2022-12-15T10:42:15.050Z,990.94
2022-12-15T10:43:15.021Z,990.96
2022-12-15T10:44:15.025Z,990.93
2022-12-15T10:45:15.053Z,990.96
2022-12-15T10:46:15.233Z,990.96
2022-12-15T10:47:15.005Z,990.95
2022-12-15T10:48:14.992Z,990.92
2022-12-15T10:49:14.956Z,990.92
2022-12-15T10:50:19.488Z,990.97
2022-12-15T10:51:16.006Z,990.92
2022-12-15T10:52:14.950Z,990.93
2022-12-15T10:53:14.928Z,990.89
2022-12-15T10:54:14.904Z,990.92
2022-12-15T10:55:14.895Z,990.90
2022-12-15T10:56:14.906Z,990.91
2022-12-15T10:57:14.931Z,990.91
2022-12-15T10:58:14.863Z,990.90
2022-12-15T10:59:14.847Z,990.96
2022-12-15T11:00:14.849Z,990.94
2022-12-15T11:01:15.004Z,990.97
2022-12-15T11:02:21.223Z,990.87
2022-12-15T11:03:16.016Z,990.89
2022-12-15T11:04:14.897Z,990.88
2022-12-15T11:05:14.786Z,990.84
2022-12-15T11:06:14.995Z,990.87
2022-12-15T11:07:14.811Z,990.82
2022-12-15T11:08:14.781Z,990.86
2022-12-15T11:09:14.852Z,990.84
2022-12-15T11:10:14.780Z,990.79
2022-12-15T11:11:14.814Z,990.82
2022-12-15T11:12:14.778Z,990.80
2022-12-15T11:13:14.878Z,990.81
2022-12-15T11:14:14.724Z,990.85
2022-12-15T11:15:14.722Z,990.80
2022-12-15T11:16:14.692Z,990.82
2022-12-15T11:17:14.788Z,990.84
2022-12-15T11:18:14.764Z,990.85
2022-12-15T11:19:14.752Z,990.80
2022-12-15T11:20:14.644Z,990.78
2022-12-15T11:21:14.661Z,990.75
2022-12-15T11:22:14.666Z,990.81
2022-12-15T11:23:14.699Z,990.82
2022-12-15T11:24:14.597Z,990.77
2022-12-15T11:25:14.599Z,990.77
2022-12-15T11:26:14.554Z,990.77
2022-12-15T11:27:14.556Z,990.73
2022-12-15T11:28:14.564Z,990.73
2022-12-15T11:29:15.278Z,990.71
2022-12-15T11:30:14.523Z,990.73
2022-12-15T11:31:14.512Z,990.70
2022-12-15T11:32:14.492Z,990.66
2022-12-15T11:33:14.511Z,990.70
2022-12-15T11:34:14.473Z,990.69
2022-12-15T11:35:14.466Z,990.64
2022-12-15T11:36:14.461Z,990.64
2022-12-15T11:37:14.484Z,990.58
2022-12-15T11:38:14.484Z,990.55
2022-12-15T11:39:14.654Z,990.58
2022-12-15T11:40:14.411Z,990.49
2022-12-15T11:41:14.398Z,990.49
2022-12-15T11:42:14.394Z,990.49
2022-12-15T11:43:14.387Z,990.52
2022-12-15T11:44:14.378Z,990.48
2022-12-15T11:45:14.406Z,990.49
2022-12-15T11:46:14.359Z,990.47
2022-12-15T11:47:14.339Z,990.48
2022-12-15T11:48:14.340Z,990.41
2022-12-15T11:49:14.560Z,990.42
2022-12-15T11:50:14.305Z,990.43
2022-12-15T11:51:14.288Z,990.42
2022-12-15T11:52:14.293Z,990.46
2022-12-15T11:53:14.266Z,990.45
2022-12-15T11:54:14.274Z,990.47
2022-12-15T11:55:14.264Z,990.47
2022-12-15T11:56:14.237Z,990.48
2022-12-15T11:57:14.226Z,990.49
2022-12-15T11:58:14.205Z,990.47
2022-12-15T11:59:14.480Z,990.48
2022-12-15T12:00:14.205Z,990.49
2022-12-15T12:01:14.205Z,990.46
2022-12-15T12:02:14.207Z,990.48
2022-12-15T12:03:14.199Z,990.46
2022-12-15T12:04:14.139Z,990.50
2022-12-15T12:05:14.149Z,990.52
2022-12-15T12:06:14.118Z,990.50
2022-12-15T12:07:14.111Z,990.47
2022-12-15T12:08:14.104Z,990.46
2022-12-15T12:09:14.120Z,990.49
2022-12-15T12:10:14.077Z,990.52
2022-12-15T12:11:14.246Z,990.49
2022-12-15T12:12:14.051Z,990.47
2022-12-15T12:13:14.054Z,990.48
2022-12-15T12:14:14.062Z,990.40
2022-12-15T12:15:14.025Z,990.45
2022-12-15T12:16:14.009Z,990.43
2022-12-15T12:17:14.011Z,990.40
2022-12-15T12:18:14.012Z,990.36
2022-12-15T12:19:14.052Z,990.38
2022-12-15T12:20:13.968Z,990.40
2022-12-15T12:21:13.979Z,990.40
2022-12-15T12:22:13.956Z,990.42
2022-12-15T12:23:13.952Z,990.45
2022-12-15T12:24:13.921Z,990.46
2022-12-15T12:25:13.938Z,990.47
2022-12-15T12:26:13.924Z,990.49
2022-12-15T12:27:13.888Z,990.53
2022-12-15T12:28:13.879Z,990.46
2022-12-15T12:29:13.879Z,990.51